sensor_id;sensor_type;location;lat;lon;timestamp;temperature;humidity
9519;DHT22;4797;50.220;8.782;2023-09-19T00:30:29;17.70;99.80
9519;DHT22;4797;50.220;8.782;2023-09-19T00:32:57;17.70;99.80
9519;DHT22;4797;50.220;8.782;2023-09-19T00:35:25;17.70;99.80
9519;DHT22;4797;50.220;8.782;2023-09-19T00:37:54;17.70;99.80
9519;DHT22;4797;50.220;8.782;2023-09-19T00:40:22;17.70;99.80
9519;DHT22;4797;50.220;8.782;2023-09-19T00:42:50;17.70;99.80
9519;DHT22;4797;50.220;8.782;2023-09-19T00:45:19;17.70;99.80
9519;DHT22;4797;50.220;8.782;2023-09-19T00:47:49;17.70;99.80
9519;DHT22;4797;50.220;8.782;2023-09-19T00:50:21;17.60;99.80
9519;DHT22;4797;50.220;8.782;2023-09-19T00:52:54;17.60;99.80
9519;DHT22;4797;50.220;8.782;2023-09-19T00:55:24;17.60;99.80
9519;DHT22;4797;50.220;8.782;2023-09-19T00:57:53;17.60;99.80
9519;DHT22;4797;50.220;8.782;2023-09-19T01:00:23;17.60;99.80
9519;DHT22;4797;50.220;8.782;2023-09-19T01:02:52;17.60;99.80
9519;DHT22;4797;50.220;8.782;2023-09-19T01:05:21;17.60;99.80
9519;DHT22;4797;50.220;8.782;2023-09-19T01:07:50;17.60;99.80
9519;DHT22;4797;50.220;8.782;2023-09-19T01:10:20;17.70;99.80
9519;DHT22;4797;50.220;8.782;2023-09-19T01:12:54;17.70;99.80
9519;DHT22;4797;50.220;8.782;2023-09-19T01:15:37;17.60;99.80
9519;DHT22;4797;50.220;8.782;2023-09-19T01:18:16;17.60;99.80
9519;DHT22;4797;50.220;8.782;2023-09-19T01:20:55;17.60;99.80
9519;DHT22;4797;50.220;8.782;2023-09-19T01:23:32;17.50;99.80
9519;DHT22;4797;50.220;8.782;2023-09-19T01:26:07;17.50;99.80
9519;DHT22;4797;50.220;8.782;2023-09-19T01:29:01;17.50;99.80
9519;DHT22;4797;50.220;8.782;2023-09-19T01:31:37;17.40;99.80
9519;DHT22;4797;50.220;8.782;2023-09-19T01:34:06;17.50;99.80
9519;DHT22;4797;50.220;8.782;2023-09-19T01:36:36;17.50;99.80
9519;DHT22;4797;50.220;8.782;2023-09-19T01:39:07;17.50;99.80
9519;DHT22;4797;50.220;8.782;2023-09-19T01:41:45;17.50;99.80
9519;DHT22;4797;50.220;8.782;2023-09-19T01:44:19;17.50;99.80
9519;DHT22;4797;50.220;8.782;2023-09-19T01:46:50;17.40;99.80
9519;DHT22;4797;50.220;8.782;2023-09-19T01:49:28;17.30;99.80
9519;DHT22;4797;50.220;8.782;2023-09-19T01:52:03;17.30;99.80
9519;DHT22;4797;50.220;8.782;2023-09-19T01:54:45;17.30;99.80
9519;DHT22;4797;50.220;8.782;2023-09-19T01:57:20;17.30;99.80
9519;DHT22;4797;50.220;8.782;2023-09-19T01:59:54;17.20;99.80
9519;DHT22;4797;50.220;8.782;2023-09-19T02:02:27;17.20;99.80
9519;DHT22;4797;50.220;8.782;2023-09-19T02:04:56;17.10;99.80
9519;DHT22;4797;50.220;8.782;2023-09-19T02:07:24;17.10;99.80
9519;DHT22;4797;50.220;8.782;2023-09-19T02:09:53;17.00;99.80
9519;DHT22;4797;50.220;8.782;2023-09-19T02:12:21;17.00;99.80
9519;DHT22;4797;50.220;8.782;2023-09-19T02:14:49;16.90;99.80
9519;DHT22;4797;50.220;8.782;2023-09-19T02:17:17;16.90;99.80
9519;DHT22;4797;50.220;8.782;2023-09-19T02:19:50;16.90;99.80
9519;DHT22;4797;50.220;8.782;2023-09-19T02:22:18;16.90;99.80
9519;DHT22;4797;50.220;8.782;2023-09-19T02:24:46;16.80;99.80
9519;DHT22;4797;50.220;8.782;2023-09-19T02:27:15;16.80;99.80
9519;DHT22;4797;50.220;8.782;2023-09-19T02:29:44;16.80;99.80
9519;DHT22;4797;50.220;8.782;2023-09-19T02:32:12;16.80;99.80
9519;DHT22;4797;50.220;8.782;2023-09-19T02:34:40;16.80;99.80
9519;DHT22;4797;50.220;8.782;2023-09-19T02:37:10;16.80;99.80
9519;DHT22;4797;50.220;8.782;2023-09-19T02:39:39;16.80;99.80
9519;DHT22;4797;50.220;8.782;2023-09-19T02:42:07;16.80;99.80
9519;DHT22;4797;50.220;8.782;2023-09-19T02:44:36;16.80;99.80
9519;DHT22;4797;50.220;8.782;2023-09-19T02:47:04;16.80;99.80
9519;DHT22;4797;50.220;8.782;2023-09-19T02:49:33;16.80;99.80
9519;DHT22;4797;50.220;8.782;2023-09-19T02:52:01;16.80;99.80
9519;DHT22;4797;50.220;8.782;2023-09-19T02:54:32;16.80;99.80
9519;DHT22;4797;50.220;8.782;2023-09-19T02:57:00;16.70;99.80
9519;DHT22;4797;50.220;8.782;2023-09-19T02:59:31;16.70;99.80
9519;DHT22;4797;50.220;8.782;2023-09-19T03:01:59;16.60;99.80
9519;DHT22;4797;50.220;8.782;2023-09-19T03:04:29;16.60;99.80
9519;DHT22;4797;50.220;8.782;2023-09-19T03:06:57;16.60;99.80
9519;DHT22;4797;50.220;8.782;2023-09-19T03:09:27;16.60;99.80
9519;DHT22;4797;50.220;8.782;2023-09-19T03:11:56;16.50;99.80
9519;DHT22;4797;50.220;8.782;2023-09-19T03:14:25;16.50;99.80
9519;DHT22;4797;50.220;8.782;2023-09-19T03:16:56;16.50;99.80
9519;DHT22;4797;50.220;8.782;2023-09-19T03:19:24;16.50;99.80
9519;DHT22;4797;50.220;8.782;2023-09-19T03:21:53;16.50;99.80
9519;DHT22;4797;50.220;8.782;2023-09-19T03:24:21;16.40;99.80
9519;DHT22;4797;50.220;8.782;2023-09-19T03:26:50;16.40;99.80
9519;DHT22;4797;50.220;8.782;2023-09-19T03:29:19;16.40;99.80
9519;DHT22;4797;50.220;8.782;2023-09-19T03:31:47;16.40;99.80
9519;DHT22;4797;50.220;8.782;2023-09-19T03:34:15;16.40;99.80
9519;DHT22;4797;50.220;8.782;2023-09-19T03:36:43;16.40;99.80
9519;DHT22;4797;50.220;8.782;2023-09-19T03:39:11;16.40;99.80
9519;DHT22;4797;50.220;8.782;2023-09-19T03:41:42;16.40;99.80
9519;DHT22;4797;50.220;8.782;2023-09-19T03:44:10;16.30;99.80
9519;DHT22;4797;50.220;8.782;2023-09-19T03:46:39;16.30;99.80
9519;DHT22;4797;50.220;8.782;2023-09-19T03:49:07;16.30;99.80
9519;DHT22;4797;50.220;8.782;2023-09-19T03:51:37;16.30;99.80
9519;DHT22;4797;50.220;8.782;2023-09-19T03:54:08;16.30;99.80
9519;DHT22;4797;50.220;8.782;2023-09-19T03:56:36;16.30;99.80
9519;DHT22;4797;50.220;8.782;2023-09-19T03:59:03;16.30;99.80
9519;DHT22;4797;50.220;8.782;2023-09-19T04:01:31;16.30;99.80
9519;DHT22;4797;50.220;8.782;2023-09-19T04:04:01;16.30;99.80
9519;DHT22;4797;50.220;8.782;2023-09-19T04:06:34;16.30;99.80
9519;DHT22;4797;50.220;8.782;2023-09-19T04:09:03;16.30;99.80
9519;DHT22;4797;50.220;8.782;2023-09-19T04:11:33;16.30;99.80
9519;DHT22;4797;50.220;8.782;2023-09-19T04:14:03;16.30;99.80
9519;DHT22;4797;50.220;8.782;2023-09-19T04:16:32;16.30;99.80
9519;DHT22;4797;50.220;8.782;2023-09-19T04:19:01;16.30;99.80
9519;DHT22;4797;50.220;8.782;2023-09-19T04:21:30;16.30;99.80
9519;DHT22;4797;50.220;8.782;2023-09-19T04:23:58;16.30;99.80
9519;DHT22;4797;50.220;8.782;2023-09-19T04:26:26;16.40;99.80
9519;DHT22;4797;50.220;8.782;2023-09-19T04:28:54;16.40;99.80
9519;DHT22;4797;50.220;8.782;2023-09-19T04:31:23;16.40;99.80
9519;DHT22;4797;50.220;8.782;2023-09-19T04:33:51;16.50;99.80
9519;DHT22;4797;50.220;8.782;2023-09-19T04:36:21;16.50;99.80
9519;DHT22;4797;50.220;8.782;2023-09-19T04:39:02;16.50;99.80
9519;DHT22;4797;50.220;8.782;2023-09-19T04:41:31;16.50;99.80
9519;DHT22;4797;50.220;8.782;2023-09-19T04:43:59;16.50;99.80
9519;DHT22;4797;50.220;8.782;2023-09-19T04:46:27;16.60;99.80
9519;DHT22;4797;50.220;8.782;2023-09-19T04:48:55;16.60;99.80
9519;DHT22;4797;50.220;8.782;2023-09-19T04:51:25;16.50;99.80
9519;DHT22;4797;50.220;8.782;2023-09-19T04:53:56;16.50;99.80
9519;DHT22;4797;50.220;8.782;2023-09-19T04:56:25;16.40;99.80
9519;DHT22;4797;50.220;8.782;2023-09-19T04:58:55;16.40;99.80
9519;DHT22;4797;50.220;8.782;2023-09-19T05:01:25;16.40;99.80
9519;DHT22;4797;50.220;8.782;2023-09-19T05:03:53;16.30;99.80
9519;DHT22;4797;50.220;8.782;2023-09-19T05:06:21;16.30;99.80
9519;DHT22;4797;50.220;8.782;2023-09-19T05:08:51;16.30;99.80
9519;DHT22;4797;50.220;8.782;2023-09-19T05:11:20;16.30;99.80
9519;DHT22;4797;50.220;8.782;2023-09-19T05:13:49;16.30;99.80
9519;DHT22;4797;50.220;8.782;2023-09-19T05:16:19;16.30;99.80
9519;DHT22;4797;50.220;8.782;2023-09-19T05:18:47;16.30;99.80
9519;DHT22;4797;50.220;8.782;2023-09-19T05:21:16;16.30;99.80
9519;DHT22;4797;50.220;8.782;2023-09-19T05:23:44;16.30;99.80
9519;DHT22;4797;50.220;8.782;2023-09-19T05:26:13;16.20;99.80
9519;DHT22;4797;50.220;8.782;2023-09-19T05:28:43;16.20;99.80
9519;DHT22;4797;50.220;8.782;2023-09-19T05:31:11;16.20;99.80
9519;DHT22;4797;50.220;8.782;2023-09-19T05:33:39;16.20;99.80
9519;DHT22;4797;50.220;8.782;2023-09-19T05:36:07;16.30;99.80
9519;DHT22;4797;50.220;8.782;2023-09-19T05:38:36;16.30;99.80
9519;DHT22;4797;50.220;8.782;2023-09-19T05:41:09;16.20;99.80
9519;DHT22;4797;50.220;8.782;2023-09-19T05:43:42;16.20;99.80
9519;DHT22;4797;50.220;8.782;2023-09-19T05:46:11;16.20;99.80
9519;DHT22;4797;50.220;8.782;2023-09-19T05:48:39;16.30;99.80
9519;DHT22;4797;50.220;8.782;2023-09-19T05:51:08;16.30;99.80
9519;DHT22;4797;50.220;8.782;2023-09-19T05:53:39;16.30;99.80
9519;DHT22;4797;50.220;8.782;2023-09-19T05:56:11;16.30;99.80
9519;DHT22;4797;50.220;8.782;2023-09-19T05:58:42;16.30;99.80
9519;DHT22;4797;50.220;8.782;2023-09-19T06:01:14;16.30;99.80
9519;DHT22;4797;50.220;8.782;2023-09-19T06:03:43;16.40;99.80
9519;DHT22;4797;50.220;8.782;2023-09-19T06:06:12;16.40;99.80
9519;DHT22;4797;50.220;8.782;2023-09-19T06:08:41;16.40;99.80
9519;DHT22;4797;50.220;8.782;2023-09-19T06:11:11;16.40;99.80
9519;DHT22;4797;50.220;8.782;2023-09-19T06:13:41;16.50;99.80
9519;DHT22;4797;50.220;8.782;2023-09-19T06:16:11;16.50;99.80
9519;DHT22;4797;50.220;8.782;2023-09-19T06:18:43;16.50;99.80
9519;DHT22;4797;50.220;8.782;2023-09-19T06:21:14;16.50;99.80
9519;DHT22;4797;50.220;8.782;2023-09-19T06:23:43;16.60;99.80
9519;DHT22;4797;50.220;8.782;2023-09-19T06:26:11;16.60;99.80
9519;DHT22;4797;50.220;8.782;2023-09-19T06:28:50;16.70;99.80
9519;DHT22;4797;50.220;8.782;2023-09-19T06:31:19;16.70;99.80
9519;DHT22;4797;50.220;8.782;2023-09-19T06:33:49;16.80;99.80
9519;DHT22;4797;50.220;8.782;2023-09-19T06:36:18;16.80;99.80
9519;DHT22;4797;50.220;8.782;2023-09-19T06:38:50;16.80;99.80
9519;DHT22;4797;50.220;8.782;2023-09-19T06:41:21;16.80;99.80
9519;DHT22;4797;50.220;8.782;2023-09-19T06:44:00;16.80;99.80
9519;DHT22;4797;50.220;8.782;2023-09-19T06:46:29;16.90;99.80
9519;DHT22;4797;50.220;8.782;2023-09-19T06:49:00;16.90;99.80
9519;DHT22;4797;50.220;8.782;2023-09-19T06:51:33;16.90;99.80
9519;DHT22;4797;50.220;8.782;2023-09-19T06:54:04;17.00;99.80
9519;DHT22;4797;50.220;8.782;2023-09-19T06:56:36;17.00;99.80
9519;DHT22;4797;50.220;8.782;2023-09-19T06:59:07;17.10;99.80
9519;DHT22;4797;50.220;8.782;2023-09-19T07:01:44;17.20;99.80
9519;DHT22;4797;50.220;8.782;2023-09-19T07:04:29;17.20;99.80
9519;DHT22;4797;50.220;8.782;2023-09-19T07:10:36;17.20;99.80
9519;DHT22;4797;50.220;8.782;2023-09-19T07:13:33;17.20;99.80
9519;DHT22;4797;50.220;8.782;2023-09-19T07:16:34;17.30;99.80
9519;DHT22;4797;50.220;8.782;2023-09-19T07:19:26;17.40;99.80
9519;DHT22;4797;50.220;8.782;2023-09-19T07:22:33;17.20;99.80
9519;DHT22;4797;50.220;8.782;2023-09-19T07:25:33;17.20;99.80
9519;DHT22;4797;50.220;8.782;2023-09-19T07:28:14;17.30;99.80
9519;DHT22;4797;50.220;8.782;2023-09-19T07:30:44;17.30;99.80
9519;DHT22;4797;50.220;8.782;2023-09-19T07:33:21;17.20;99.80
9519;DHT22;4797;50.220;8.782;2023-09-19T07:35:59;17.20;99.80
9519;DHT22;4797;50.220;8.782;2023-09-19T07:38:30;17.30;99.80
9519;DHT22;4797;50.220;8.782;2023-09-19T07:41:09;17.40;99.80
9519;DHT22;4797;50.220;8.782;2023-09-19T07:43:40;17.50;99.80
9519;DHT22;4797;50.220;8.782;2023-09-19T07:46:14;17.60;99.80
9519;DHT22;4797;50.220;8.782;2023-09-19T07:48:58;17.70;99.80
9519;DHT22;4797;50.220;8.782;2023-09-19T07:51:41;17.80;99.80
9519;DHT22;4797;50.220;8.782;2023-09-19T07:54:23;17.80;99.80
9519;DHT22;4797;50.220;8.782;2023-09-19T07:57:01;17.90;99.80
9519;DHT22;4797;50.220;8.782;2023-09-19T07:59:31;18.00;99.80
9519;DHT22;4797;50.220;8.782;2023-09-19T08:02:10;18.00;99.80
9519;DHT22;4797;50.220;8.782;2023-09-19T08:04:47;18.10;99.80
9519;DHT22;4797;50.220;8.782;2023-09-19T08:10:22;18.10;99.80
9519;DHT22;4797;50.220;8.782;2023-09-19T08:13:33;18.10;99.80
9519;DHT22;4797;50.220;8.782;2023-09-19T08:16:14;18.10;99.80
9519;DHT22;4797;50.220;8.782;2023-09-19T08:18:52;18.20;99.80
9519;DHT22;4797;50.220;8.782;2023-09-19T08:21:34;18.30;99.80
9519;DHT22;4797;50.220;8.782;2023-09-19T08:24:03;18.40;99.80
9519;DHT22;4797;50.220;8.782;2023-09-19T08:26:32;18.40;99.80
9519;DHT22;4797;50.220;8.782;2023-09-19T08:29:06;18.50;99.80
9519;DHT22;4797;50.220;8.782;2023-09-19T08:31:41;18.50;99.80
9519;DHT22;4797;50.220;8.782;2023-09-19T08:34:13;18.50;99.80
9519;DHT22;4797;50.220;8.782;2023-09-19T08:37:19;18.40;99.80
9519;DHT22;4797;50.220;8.782;2023-09-19T08:43:14;18.40;99.80
9519;DHT22;4797;50.220;8.782;2023-09-19T08:46:35;18.50;99.80
9519;DHT22;4797;50.220;8.782;2023-09-19T08:49:17;18.60;99.80
9519;DHT22;4797;50.220;8.782;2023-09-19T08:52:10;18.60;99.80
9519;DHT22;4797;50.220;8.782;2023-09-19T08:55:02;18.80;99.80
9519;DHT22;4797;50.220;8.782;2023-09-19T08:57:33;18.90;99.80
9519;DHT22;4797;50.220;8.782;2023-09-19T09:00:05;18.90;99.80
9519;DHT22;4797;50.220;8.782;2023-09-19T09:02:37;18.80;99.80
9519;DHT22;4797;50.220;8.782;2023-09-19T09:05:16;18.70;99.80
9519;DHT22;4797;50.220;8.782;2023-09-19T09:07:52;18.80;99.80
9519;DHT22;4797;50.220;8.782;2023-09-19T09:10:27;18.80;99.80
9519;DHT22;4797;50.220;8.782;2023-09-19T09:12:58;18.90;99.80
9519;DHT22;4797;50.220;8.782;2023-09-19T09:15:28;19.00;99.80
9519;DHT22;4797;50.220;8.782;2023-09-19T09:17:59;19.20;99.80
9519;DHT22;4797;50.220;8.782;2023-09-19T09:20:28;19.20;99.80
9519;DHT22;4797;50.220;8.782;2023-09-19T09:22:56;19.40;99.80
9519;DHT22;4797;50.220;8.782;2023-09-19T09:25:50;19.50;99.80
9519;DHT22;4797;50.220;8.782;2023-09-19T09:28:23;19.60;99.80
9519;DHT22;4797;50.220;8.782;2023-09-19T09:30:51;19.70;99.80
9519;DHT22;4797;50.220;8.782;2023-09-19T09:33:22;19.70;99.80
9519;DHT22;4797;50.220;8.782;2023-09-19T09:35:57;19.80;99.80
9519;DHT22;4797;50.220;8.782;2023-09-19T09:38:28;19.70;99.80
9519;DHT22;4797;50.220;8.782;2023-09-19T09:41:07;19.70;99.80
9519;DHT22;4797;50.220;8.782;2023-09-19T09:43:45;19.80;99.80
9519;DHT22;4797;50.220;8.782;2023-09-19T09:46:18;19.90;99.80
9519;DHT22;4797;50.220;8.782;2023-09-19T09:49:02;19.90;99.80
9519;DHT22;4797;50.220;8.782;2023-09-19T09:51:44;20.00;99.80
9519;DHT22;4797;50.220;8.782;2023-09-19T09:54:16;20.00;99.80
9519;DHT22;4797;50.220;8.782;2023-09-19T09:56:54;19.90;99.80
9519;DHT22;4797;50.220;8.782;2023-09-19T09:59:47;19.90;99.80
9519;DHT22;4797;50.220;8.782;2023-09-19T10:02:21;19.90;99.80
9519;DHT22;4797;50.220;8.782;2023-09-19T10:04:57;20.00;99.80
9519;DHT22;4797;50.220;8.782;2023-09-19T10:07:50;20.10;99.80
9519;DHT22;4797;50.220;8.782;2023-09-19T10:10:31;20.30;99.80
9519;DHT22;4797;50.220;8.782;2023-09-19T10:13:33;20.60;99.80
9519;DHT22;4797;50.220;8.782;2023-09-19T10:16:12;20.80;99.80
9519;DHT22;4797;50.220;8.782;2023-09-19T10:18:51;20.70;99.80
9519;DHT22;4797;50.220;8.782;2023-09-19T10:21:21;20.60;99.80
9519;DHT22;4797;50.220;8.782;2023-09-19T10:23:53;20.50;99.80
9519;DHT22;4797;50.220;8.782;2023-09-19T10:26:27;20.50;99.80
9519;DHT22;4797;50.220;8.782;2023-09-19T10:28:59;20.50;99.80
9519;DHT22;4797;50.220;8.782;2023-09-19T10:31:29;20.70;99.80
9519;DHT22;4797;50.220;8.782;2023-09-19T10:34:03;21.00;99.80
9519;DHT22;4797;50.220;8.782;2023-09-19T10:36:33;21.20;99.80
9519;DHT22;4797;50.220;8.782;2023-09-19T10:39:02;21.40;99.80
9519;DHT22;4797;50.220;8.782;2023-09-19T10:41:34;21.50;99.80
9519;DHT22;4797;50.220;8.782;2023-09-19T10:44:05;21.50;99.80
9519;DHT22;4797;50.220;8.782;2023-09-19T10:46:37;21.50;99.80
9519;DHT22;4797;50.220;8.782;2023-09-19T10:49:05;21.60;99.80
9519;DHT22;4797;50.220;8.782;2023-09-19T10:51:42;21.60;99.20
9519;DHT22;4797;50.220;8.782;2023-09-19T10:54:13;21.50;99.80
9519;DHT22;4797;50.220;8.782;2023-09-19T10:56:48;21.50;99.80
9519;DHT22;4797;50.220;8.782;2023-09-19T10:59:22;21.60;99.50
9519;DHT22;4797;50.220;8.782;2023-09-19T11:01:52;21.90;97.50
9519;DHT22;4797;50.220;8.782;2023-09-19T11:04:26;22.00;95.90
9519;DHT22;4797;50.220;8.782;2023-09-19T11:07:04;21.90;95.70
9519;DHT22;4797;50.220;8.782;2023-09-19T11:13:25;21.70;96.50
9519;DHT22;4797;50.220;8.782;2023-09-19T11:16:18;21.50;96.80
9519;DHT22;4797;50.220;8.782;2023-09-19T11:18:54;21.50;97.10
9519;DHT22;4797;50.220;8.782;2023-09-19T11:21:50;21.70;95.80
9519;DHT22;4797;50.220;8.782;2023-09-19T11:24:32;21.80;93.50
9519;DHT22;4797;50.220;8.782;2023-09-19T11:27:13;22.00;93.30
9519;DHT22;4797;50.220;8.782;2023-09-19T11:29:44;22.40;92.50
9519;DHT22;4797;50.220;8.782;2023-09-19T11:32:13;23.90;90.40
9519;DHT22;4797;50.220;8.782;2023-09-19T11:34:45;26.50;83.30
9519;DHT22;4797;50.220;8.782;2023-09-19T11:40:37;30.90;72.80
9519;DHT22;4797;50.220;8.782;2023-09-19T11:43:27;32.10;69.10
9519;DHT22;4797;50.220;8.782;2023-09-19T11:46:07;32.70;64.60
9519;DHT22;4797;50.220;8.782;2023-09-19T11:48:38;33.20;64.90
9519;DHT22;4797;50.220;8.782;2023-09-19T11:51:15;33.90;64.40
9519;DHT22;4797;50.220;8.782;2023-09-19T11:53:46;34.50;62.30
9519;DHT22;4797;50.220;8.782;2023-09-19T11:56:17;34.40;60.80
9519;DHT22;4797;50.220;8.782;2023-09-19T11:58:45;34.40;61.10
9519;DHT22;4797;50.220;8.782;2023-09-19T12:01:21;34.60;61.30
9519;DHT22;4797;50.220;8.782;2023-09-19T12:03:55;34.80;60.30
9519;DHT22;4797;50.220;8.782;2023-09-19T12:06:41;34.80;60.30
9519;DHT22;4797;50.220;8.782;2023-09-19T12:09:22;34.00;62.20
9519;DHT22;4797;50.220;8.782;2023-09-19T12:12:02;35.00;60.40
9519;DHT22;4797;50.220;8.782;2023-09-19T12:14:30;35.40;60.70
9519;DHT22;4797;50.220;8.782;2023-09-19T12:17:13;36.00;59.50
9519;DHT22;4797;50.220;8.782;2023-09-19T12:19:49;35.80;59.70
9519;DHT22;4797;50.220;8.782;2023-09-19T12:22:18;35.40;59.10
9519;DHT22;4797;50.220;8.782;2023-09-19T12:24:47;33.80;61.00
9519;DHT22;4797;50.220;8.782;2023-09-19T12:27:21;34.50;60.40
9519;DHT22;4797;50.220;8.782;2023-09-19T12:29:51;35.50;60.10
9519;DHT22;4797;50.220;8.782;2023-09-19T12:32:34;36.00;57.60
9519;DHT22;4797;50.220;8.782;2023-09-19T12:35:07;37.00;56.80
9519;DHT22;4797;50.220;8.782;2023-09-19T12:37:43;37.60;54.40
9519;DHT22;4797;50.220;8.782;2023-09-19T12:40:13;37.30;55.00
9519;DHT22;4797;50.220;8.782;2023-09-19T12:42:46;37.60;54.70
9519;DHT22;4797;50.220;8.782;2023-09-19T12:45:18;37.40;55.30
9519;DHT22;4797;50.220;8.782;2023-09-19T13:25:07;23.60;82.00
9519;DHT22;4797;50.220;8.782;2023-09-19T13:27:42;23.60;81.40
9519;DHT22;4797;50.220;8.782;2023-09-19T13:30:11;23.60;81.90
9519;DHT22;4797;50.220;8.782;2023-09-19T13:32:39;23.50;81.90
9519;DHT22;4797;50.220;8.782;2023-09-19T13:35:10;23.40;80.80
9519;DHT22;4797;50.220;8.782;2023-09-19T13:37:40;23.30;81.80
9519;DHT22;4797;50.220;8.782;2023-09-19T13:40:12;23.10;83.00
9519;DHT22;4797;50.220;8.782;2023-09-19T13:42:41;23.00;80.60
9519;DHT22;4797;50.220;8.782;2023-09-19T13:45:13;22.70;81.70
9519;DHT22;4797;50.220;8.782;2023-09-19T13:47:44;22.50;83.00
9519;DHT22;4797;50.220;8.782;2023-09-19T13:50:16;22.30;83.40
9519;DHT22;4797;50.220;8.782;2023-09-19T13:52:50;22.20;83.50
9519;DHT22;4797;50.220;8.782;2023-09-19T13:55:21;22.20;85.80
9519;DHT22;4797;50.220;8.782;2023-09-19T13:57:49;22.20;86.00
9519;DHT22;4797;50.220;8.782;2023-09-19T14:00:19;22.20;84.60
9519;DHT22;4797;50.220;8.782;2023-09-19T14:02:47;22.00;84.60
9519;DHT22;4797;50.220;8.782;2023-09-19T14:05:16;22.00;85.50
9519;DHT22;4797;50.220;8.782;2023-09-19T14:07:44;22.00;85.40
9519;DHT22;4797;50.220;8.782;2023-09-19T14:10:13;22.00;85.50
9519;DHT22;4797;50.220;8.782;2023-09-19T14:12:44;22.20;85.20
9519;DHT22;4797;50.220;8.782;2023-09-19T14:15:13;22.20;84.40
9519;DHT22;4797;50.220;8.782;2023-09-19T14:17:41;22.30;85.00
9519;DHT22;4797;50.220;8.782;2023-09-19T14:20:11;22.30;85.20
9519;DHT22;4797;50.220;8.782;2023-09-19T14:22:41;22.30;85.20
9519;DHT22;4797;50.220;8.782;2023-09-19T14:25:09;22.20;86.00
9519;DHT22;4797;50.220;8.782;2023-09-19T14:27:37;22.00;86.60
9519;DHT22;4797;50.220;8.782;2023-09-19T14:30:08;22.00;87.30
9519;DHT22;4797;50.220;8.782;2023-09-19T14:32:36;22.30;85.80
9519;DHT22;4797;50.220;8.782;2023-09-19T14:35:05;22.40;86.60
9519;DHT22;4797;50.220;8.782;2023-09-19T14:37:33;22.50;86.40
9519;DHT22;4797;50.220;8.782;2023-09-19T14:40:01;22.40;85.70
9519;DHT22;4797;50.220;8.782;2023-09-19T14:42:35;22.30;85.60
9519;DHT22;4797;50.220;8.782;2023-09-19T14:45:07;22.20;85.10
9519;DHT22;4797;50.220;8.782;2023-09-19T14:47:36;22.00;85.90
9519;DHT22;4797;50.220;8.782;2023-09-19T14:50:05;21.90;85.20
9519;DHT22;4797;50.220;8.782;2023-09-19T14:52:34;21.80;85.80
9519;DHT22;4797;50.220;8.782;2023-09-19T14:55:03;21.80;86.00
9519;DHT22;4797;50.220;8.782;2023-09-19T14:57:33;21.70;85.60
9519;DHT22;4797;50.220;8.782;2023-09-19T15:00:01;21.80;86.50
9519;DHT22;4797;50.220;8.782;2023-09-19T16:06:54;21.10;92.30
9519;DHT22;4797;50.220;8.782;2023-09-19T16:09:23;21.10;91.90
9519;DHT22;4797;50.220;8.782;2023-09-19T16:11:51;21.10;91.60
9519;DHT22;4797;50.220;8.782;2023-09-19T16:14:19;21.20;92.30
9519;DHT22;4797;50.220;8.782;2023-09-19T16:16:47;21.20;92.60
9519;DHT22;4797;50.220;8.782;2023-09-19T16:19:17;21.30;92.20
9519;DHT22;4797;50.220;8.782;2023-09-19T16:21:45;21.30;92.10
9519;DHT22;4797;50.220;8.782;2023-09-19T16:24:15;21.30;92.30
9519;DHT22;4797;50.220;8.782;2023-09-19T16:26:43;21.40;92.40
9519;DHT22;4797;50.220;8.782;2023-09-19T16:29:13;21.40;92.20
9519;DHT22;4797;50.220;8.782;2023-09-19T16:31:41;21.30;93.10
9519;DHT22;4797;50.220;8.782;2023-09-19T16:34:09;21.30;93.60
9519;DHT22;4797;50.220;8.782;2023-09-19T16:36:37;21.20;92.90
9519;DHT22;4797;50.220;8.782;2023-09-19T16:39:05;21.10;93.20
9519;DHT22;4797;50.220;8.782;2023-09-19T16:41:35;21.00;93.50
9519;DHT22;4797;50.220;8.782;2023-09-19T16:44:04;21.00;93.60
9519;DHT22;4797;50.220;8.782;2023-09-19T16:46:34;21.00;93.80
9519;DHT22;4797;50.220;8.782;2023-09-19T16:49:03;20.90;94.30
9519;DHT22;4797;50.220;8.782;2023-09-19T16:51:32;20.80;95.90
9519;DHT22;4797;50.220;8.782;2023-09-19T16:54:00;20.70;95.10
9519;DHT22;4797;50.220;8.782;2023-09-19T16:56:29;20.70;95.60
9519;DHT22;4797;50.220;8.782;2023-09-19T16:59:01;20.70;95.50
9519;DHT22;4797;50.220;8.782;2023-09-19T17:01:31;20.50;96.20
9519;DHT22;4797;50.220;8.782;2023-09-19T17:04:00;20.40;97.20
9519;DHT22;4797;50.220;8.782;2023-09-19T17:06:30;20.20;97.80
9519;DHT22;4797;50.220;8.782;2023-09-19T17:08:58;20.10;98.10
9519;DHT22;4797;50.220;8.782;2023-09-19T17:11:26;19.90;99.20
9519;DHT22;4797;50.220;8.782;2023-09-19T17:13:54;19.80;99.40
9519;DHT22;4797;50.220;8.782;2023-09-19T17:16:25;19.70;99.70
9519;DHT22;4797;50.220;8.782;2023-09-19T17:18:57;19.70;99.70
9519;DHT22;4797;50.220;8.782;2023-09-19T17:21:25;19.70;99.80
9519;DHT22;4797;50.220;8.782;2023-09-19T17:23:54;19.60;99.80
9519;DHT22;4797;50.220;8.782;2023-09-19T17:26:24;19.70;99.80
9519;DHT22;4797;50.220;8.782;2023-09-19T17:28:53;19.70;99.80
9519;DHT22;4797;50.220;8.782;2023-09-19T17:31:23;19.70;99.80
9519;DHT22;4797;50.220;8.782;2023-09-19T17:33:53;19.60;99.80
9519;DHT22;4797;50.220;8.782;2023-09-19T17:36:22;19.60;99.80
9519;DHT22;4797;50.220;8.782;2023-09-19T17:38:52;19.60;99.80
9519;DHT22;4797;50.220;8.782;2023-09-19T17:41:21;19.60;99.80
9519;DHT22;4797;50.220;8.782;2023-09-19T17:43:52;19.60;99.80
9519;DHT22;4797;50.220;8.782;2023-09-19T17:46:20;19.50;99.80
9519;DHT22;4797;50.220;8.782;2023-09-19T17:48:52;19.40;99.80
9519;DHT22;4797;50.220;8.782;2023-09-19T17:51:21;19.40;99.80
9519;DHT22;4797;50.220;8.782;2023-09-19T17:53:49;19.40;99.80
9519;DHT22;4797;50.220;8.782;2023-09-19T17:56:18;19.40;99.80
9519;DHT22;4797;50.220;8.782;2023-09-19T17:58:47;19.40;99.80
9519;DHT22;4797;50.220;8.782;2023-09-19T18:01:21;19.40;99.80
9519;DHT22;4797;50.220;8.782;2023-09-19T18:03:50;19.40;99.80
9519;DHT22;4797;50.220;8.782;2023-09-19T18:06:25;19.40;99.80
9519;DHT22;4797;50.220;8.782;2023-09-19T18:08:53;19.40;99.80
9519;DHT22;4797;50.220;8.782;2023-09-19T18:11:23;19.40;99.80
9519;DHT22;4797;50.220;8.782;2023-09-19T18:13:54;19.40;99.80
9519;DHT22;4797;50.220;8.782;2023-09-19T18:16:22;19.40;99.80
9519;DHT22;4797;50.220;8.782;2023-09-19T18:18:52;19.40;99.80
9519;DHT22;4797;50.220;8.782;2023-09-19T18:21:21;19.40;99.80
9519;DHT22;4797;50.220;8.782;2023-09-19T18:23:54;19.30;99.80
9519;DHT22;4797;50.220;8.782;2023-09-19T18:26:23;19.30;99.80
9519;DHT22;4797;50.220;8.782;2023-09-19T18:28:51;19.30;99.80
9519;DHT22;4797;50.220;8.782;2023-09-19T18:31:20;19.30;99.80
9519;DHT22;4797;50.220;8.782;2023-09-19T18:33:49;19.30;99.80
9519;DHT22;4797;50.220;8.782;2023-09-19T18:36:19;19.30;99.80
9519;DHT22;4797;50.220;8.782;2023-09-19T18:38:47;19.30;99.80
9519;DHT22;4797;50.220;8.782;2023-09-19T18:41:30;19.20;99.80
9519;DHT22;4797;50.220;8.782;2023-09-19T18:44:03;19.10;99.80
9519;DHT22;4797;50.220;8.782;2023-09-19T18:46:31;19.10;99.80
9519;DHT22;4797;50.220;8.782;2023-09-19T18:49:00;19.10;99.80
9519;DHT22;4797;50.220;8.782;2023-09-19T18:51:28;19.00;99.80
9519;DHT22;4797;50.220;8.782;2023-09-19T18:53:56;19.00;99.80
9519;DHT22;4797;50.220;8.782;2023-09-19T18:56:41;19.10;99.80
9519;DHT22;4797;50.220;8.782;2023-09-19T18:59:10;19.00;99.80
9519;DHT22;4797;50.220;8.782;2023-09-19T19:01:40;19.00;99.80
9519;DHT22;4797;50.220;8.782;2023-09-19T19:04:09;18.90;99.80